sensor_id;sensor_type;location;lat;lon;timestamp;temperature;humidity
25332;DHT22;13284;52.748;13.452;2022-11-24T00:01:04;2.20;99.90
25332;DHT22;13284;52.748;13.452;2022-11-24T00:03:30;2.20;99.90
25332;DHT22;13284;52.748;13.452;2022-11-24T00:05:55;2.30;99.90
25332;DHT22;13284;52.748;13.452;2022-11-24T00:08:21;2.30;99.90
25332;DHT22;13284;52.748;13.452;2022-11-24T00:10:46;2.20;99.90
25332;DHT22;13284;52.748;13.452;2022-11-24T00:13:12;2.30;99.90
25332;DHT22;13284;52.748;13.452;2022-11-24T00:15:37;2.30;99.90
25332;DHT22;13284;52.748;13.452;2022-11-24T00:18:03;2.30;99.90
25332;DHT22;13284;52.748;13.452;2022-11-24T00:20:29;2.30;99.90
25332;DHT22;13284;52.748;13.452;2022-11-24T00:22:54;2.40;99.90
25332;DHT22;13284;52.748;13.452;2022-11-24T00:25:20;2.40;99.90
25332;DHT22;13284;52.748;13.452;2022-11-24T00:27:45;2.40;99.90
25332;DHT22;13284;52.748;13.452;2022-11-24T00:30:11;2.40;99.90
25332;DHT22;13284;52.748;13.452;2022-11-24T00:32:37;2.40;99.90
25332;DHT22;13284;52.748;13.452;2022-11-24T00:35:02;2.40;99.90
25332;DHT22;13284;52.748;13.452;2022-11-24T00:37:28;2.50;99.90
25332;DHT22;13284;52.748;13.452;2022-11-24T00:39:54;2.50;99.90
25332;DHT22;13284;52.748;13.452;2022-11-24T00:42:19;2.40;99.90
25332;DHT22;13284;52.748;13.452;2022-11-24T00:44:45;2.50;99.90
25332;DHT22;13284;52.748;13.452;2022-11-24T00:47:10;2.50;99.90
25332;DHT22;13284;52.748;13.452;2022-11-24T00:49:36;2.50;99.90
25332;DHT22;13284;52.748;13.452;2022-11-24T00:52:01;2.50;99.90
25332;DHT22;13284;52.748;13.452;2022-11-24T00:54:27;2.50;99.90
25332;DHT22;13284;52.748;13.452;2022-11-24T00:56:53;2.50;99.90
25332;DHT22;13284;52.748;13.452;2022-11-24T00:59:18;2.50;99.90
25332;DHT22;13284;52.748;13.452;2022-11-24T01:01:44;2.50;99.90
25332;DHT22;13284;52.748;13.452;2022-11-24T01:04:09;2.50;99.90
25332;DHT22;13284;52.748;13.452;2022-11-24T01:06:35;2.50;99.90
25332;DHT22;13284;52.748;13.452;2022-11-24T01:09:01;2.50;99.90
25332;DHT22;13284;52.748;13.452;2022-11-24T01:11:33;2.50;99.90
25332;DHT22;13284;52.748;13.452;2022-11-24T01:14:18;2.50;99.90
25332;DHT22;13284;52.748;13.452;2022-11-24T01:16:44;2.50;99.90
25332;DHT22;13284;52.748;13.452;2022-11-24T01:19:09;2.50;99.90
25332;DHT22;13284;52.748;13.452;2022-11-24T01:21:35;2.60;99.90
25332;DHT22;13284;52.748;13.452;2022-11-24T01:24:00;2.50;99.90
25332;DHT22;13284;52.748;13.452;2022-11-24T01:26:26;2.60;99.90
25332;DHT22;13284;52.748;13.452;2022-11-24T01:28:56;2.50;99.90
25332;DHT22;13284;52.748;13.452;2022-11-24T01:31:22;2.50;99.90
25332;DHT22;13284;52.748;13.452;2022-11-24T01:33:48;2.50;99.90
25332;DHT22;13284;52.748;13.452;2022-11-24T01:36:14;2.60;99.90
25332;DHT22;13284;52.748;13.452;2022-11-24T01:38:40;2.60;99.90
25332;DHT22;13284;52.748;13.452;2022-11-24T01:41:14;2.60;99.90
25332;DHT22;13284;52.748;13.452;2022-11-24T01:43:41;2.60;99.90
25332;DHT22;13284;52.748;13.452;2022-11-24T01:48:47;2.60;99.90
25332;DHT22;13284;52.748;13.452;2022-11-24T01:51:17;2.70;99.90
25332;DHT22;13284;52.748;13.452;2022-11-24T01:53:49;2.60;99.90
25332;DHT22;13284;52.748;13.452;2022-11-24T01:56:16;2.60;99.90
25332;DHT22;13284;52.748;13.452;2022-11-24T01:58:43;2.60;99.90
25332;DHT22;13284;52.748;13.452;2022-11-24T02:01:10;2.60;99.90
25332;DHT22;13284;52.748;13.452;2022-11-24T02:03:38;2.60;99.90
25332;DHT22;13284;52.748;13.452;2022-11-24T02:06:10;2.60;99.90
25332;DHT22;13284;52.748;13.452;2022-11-24T02:08:44;2.60;99.90
25332;DHT22;13284;52.748;13.452;2022-11-24T02:11:11;2.60;99.90
25332;DHT22;13284;52.748;13.452;2022-11-24T02:13:38;2.50;99.90
25332;DHT22;13284;52.748;13.452;2022-11-24T02:16:05;2.60;99.90
25332;DHT22;13284;52.748;13.452;2022-11-24T02:18:32;2.60;99.90
25332;DHT22;13284;52.748;13.452;2022-11-24T02:20:59;2.60;99.90
25332;DHT22;13284;52.748;13.452;2022-11-24T02:23:54;2.60;99.90
25332;DHT22;13284;52.748;13.452;2022-11-24T02:28:56;2.50;99.90
25332;DHT22;13284;52.748;13.452;2022-11-24T02:31:21;2.60;99.90
25332;DHT22;13284;52.748;13.452;2022-11-24T02:33:48;2.60;99.90
25332;DHT22;13284;52.748;13.452;2022-11-24T02:36:14;2.70;99.90
25332;DHT22;13284;52.748;13.452;2022-11-24T02:38:40;2.60;99.90
25332;DHT22;13284;52.748;13.452;2022-11-24T02:41:09;2.60;99.90
25332;DHT22;13284;52.748;13.452;2022-11-24T02:43:41;2.60;99.90
25332;DHT22;13284;52.748;13.452;2022-11-24T02:46:07;2.70;99.90
25332;DHT22;13284;52.748;13.452;2022-11-24T02:48:35;2.70;99.90
25332;DHT22;13284;52.748;13.452;2022-11-24T02:51:01;2.70;99.90
25332;DHT22;13284;52.748;13.452;2022-11-24T02:53:37;2.70;99.90
25332;DHT22;13284;52.748;13.452;2022-11-24T02:56:02;2.70;99.90
25332;DHT22;13284;52.748;13.452;2022-11-24T02:58:28;2.70;99.90
25332;DHT22;13284;52.748;13.452;2022-11-24T03:00:54;2.70;99.90
25332;DHT22;13284;52.748;13.452;2022-11-24T03:03:23;2.70;99.90
25332;DHT22;13284;52.748;13.452;2022-11-24T03:05:49;2.70;99.90
25332;DHT22;13284;52.748;13.452;2022-11-24T03:08:15;2.70;99.90
25332;DHT22;13284;52.748;13.452;2022-11-24T03:10:41;2.60;99.90
25332;DHT22;13284;52.748;13.452;2022-11-24T03:13:07;2.70;99.90
25332;DHT22;13284;52.748;13.452;2022-11-24T03:15:33;2.70;99.90
25332;DHT22;13284;52.748;13.452;2022-11-24T03:17:58;2.70;99.90
25332;DHT22;13284;52.748;13.452;2022-11-24T03:20:24;2.60;99.90
25332;DHT22;13284;52.748;13.452;2022-11-24T03:22:50;2.70;99.90
25332;DHT22;13284;52.748;13.452;2022-11-24T03:25:16;2.60;99.90
25332;DHT22;13284;52.748;13.452;2022-11-24T03:27:42;2.60;99.90
25332;DHT22;13284;52.748;13.452;2022-11-24T03:30:08;2.70;99.90
25332;DHT22;13284;52.748;13.452;2022-11-24T03:32:34;2.80;99.90
25332;DHT22;13284;52.748;13.452;2022-11-24T03:34:59;2.70;99.90
25332;DHT22;13284;52.748;13.452;2022-11-24T03:37:25;2.80;99.90
25332;DHT22;13284;52.748;13.452;2022-11-24T03:39:50;2.70;99.90
25332;DHT22;13284;52.748;13.452;2022-11-24T03:42:16;2.70;99.90
25332;DHT22;13284;52.748;13.452;2022-11-24T03:44:42;2.70;99.90
25332;DHT22;13284;52.748;13.452;2022-11-24T03:47:08;2.70;99.90
25332;DHT22;13284;52.748;13.452;2022-11-24T03:49:34;2.60;99.90
25332;DHT22;13284;52.748;13.452;2022-11-24T03:52:00;2.70;99.90
25332;DHT22;13284;52.748;13.452;2022-11-24T03:54:26;2.70;99.90
25332;DHT22;13284;52.748;13.452;2022-11-24T03:56:52;2.70;99.90
25332;DHT22;13284;52.748;13.452;2022-11-24T03:59:17;2.70;99.90
25332;DHT22;13284;52.748;13.452;2022-11-24T04:01:43;2.60;99.90
25332;DHT22;13284;52.748;13.452;2022-11-24T04:04:10;2.70;99.90
25332;DHT22;13284;52.748;13.452;2022-11-24T04:06:36;2.60;99.90
25332;DHT22;13284;52.748;13.452;2022-11-24T04:09:01;2.70;99.90
25332;DHT22;13284;52.748;13.452;2022-11-24T04:11:27;2.70;99.90
25332;DHT22;13284;52.748;13.452;2022-11-24T04:14:11;2.70;99.90
25332;DHT22;13284;52.748;13.452;2022-11-24T04:16:37;2.70;99.90
25332;DHT22;13284;52.748;13.452;2022-11-24T04:19:02;2.70;99.90
25332;DHT22;13284;52.748;13.452;2022-11-24T04:21:28;2.60;99.90
25332;DHT22;13284;52.748;13.452;2022-11-24T04:23:53;2.70;99.90
25332;DHT22;13284;52.748;13.452;2022-11-24T04:26:19;2.70;99.90
25332;DHT22;13284;52.748;13.452;2022-11-24T04:28:44;2.60;99.90
25332;DHT22;13284;52.748;13.452;2022-11-24T04:31:10;2.70;99.90
25332;DHT22;13284;52.748;13.452;2022-11-24T04:33:35;2.70;99.90
25332;DHT22;13284;52.748;13.452;2022-11-24T04:36:01;2.60;99.90
25332;DHT22;13284;52.748;13.452;2022-11-24T04:38:26;2.70;99.90
25332;DHT22;13284;52.748;13.452;2022-11-24T04:40:52;2.70;99.90
25332;DHT22;13284;52.748;13.452;2022-11-24T04:43:17;2.70;99.90
25332;DHT22;13284;52.748;13.452;2022-11-24T04:45:44;2.70;99.90
25332;DHT22;13284;52.748;13.452;2022-11-24T04:48:09;2.70;99.90
25332;DHT22;13284;52.748;13.452;2022-11-24T04:50:36;2.60;99.90
25332;DHT22;13284;52.748;13.452;2022-11-24T04:53:02;2.60;99.90
25332;DHT22;13284;52.748;13.452;2022-11-24T04:55:27;2.50;99.90
25332;DHT22;13284;52.748;13.452;2022-11-24T04:57:53;2.60;99.90
25332;DHT22;13284;52.748;13.452;2022-11-24T05:00:19;2.50;99.90
25332;DHT22;13284;52.748;13.452;2022-11-24T05:02:44;2.40;99.90
25332;DHT22;13284;52.748;13.452;2022-11-24T05:05:10;2.50;99.90
25332;DHT22;13284;52.748;13.452;2022-11-24T05:07:35;2.40;99.90
25332;DHT22;13284;52.748;13.452;2022-11-24T05:10:01;2.40;99.90
25332;DHT22;13284;52.748;13.452;2022-11-24T05:12:53;2.40;99.90
25332;DHT22;13284;52.748;13.452;2022-11-24T05:15:19;2.40;99.90
25332;DHT22;13284;52.748;13.452;2022-11-24T05:17:44;2.40;99.90
25332;DHT22;13284;52.748;13.452;2022-11-24T05:20:10;2.40;99.90
25332;DHT22;13284;52.748;13.452;2022-11-24T05:22:36;2.40;99.90
25332;DHT22;13284;52.748;13.452;2022-11-24T05:25:01;2.40;99.90
25332;DHT22;13284;52.748;13.452;2022-11-24T05:27:27;2.40;99.90
25332;DHT22;13284;52.748;13.452;2022-11-24T05:29:53;2.30;99.90
25332;DHT22;13284;52.748;13.452;2022-11-24T05:32:18;2.30;99.90
25332;DHT22;13284;52.748;13.452;2022-11-24T05:34:44;2.30;99.90
25332;DHT22;13284;52.748;13.452;2022-11-24T05:37:10;2.30;99.90
25332;DHT22;13284;52.748;13.452;2022-11-24T05:39:36;2.30;99.90
25332;DHT22;13284;52.748;13.452;2022-11-24T05:42:02;2.30;99.90
25332;DHT22;13284;52.748;13.452;2022-11-24T05:44:47;2.30;99.90
25332;DHT22;13284;52.748;13.452;2022-11-24T05:47:12;2.30;99.90
25332;DHT22;13284;52.748;13.452;2022-11-24T05:49:38;2.30;99.90
25332;DHT22;13284;52.748;13.452;2022-11-24T05:52:04;2.30;99.90
25332;DHT22;13284;52.748;13.452;2022-11-24T05:54:29;2.30;99.90
25332;DHT22;13284;52.748;13.452;2022-11-24T05:56:55;2.30;99.90
25332;DHT22;13284;52.748;13.452;2022-11-24T05:59:20;2.40;99.90
25332;DHT22;13284;52.748;13.452;2022-11-24T06:01:46;2.30;99.90
25332;DHT22;13284;52.748;13.452;2022-11-24T06:04:12;2.40;99.90
25332;DHT22;13284;52.748;13.452;2022-11-24T06:06:37;2.40;99.90
25332;DHT22;13284;52.748;13.452;2022-11-24T06:09:03;2.30;99.90
25332;DHT22;13284;52.748;13.452;2022-11-24T06:11:29;2.30;99.90
25332;DHT22;13284;52.748;13.452;2022-11-24T06:13:55;2.30;99.90
25332;DHT22;13284;52.748;13.452;2022-11-24T06:16:20;2.20;99.90
25332;DHT22;13284;52.748;13.452;2022-11-24T06:18:46;2.20;99.90
25332;DHT22;13284;52.748;13.452;2022-11-24T06:21:12;2.30;99.90
25332;DHT22;13284;52.748;13.452;2022-11-24T06:23:38;2.30;99.90
25332;DHT22;13284;52.748;13.452;2022-11-24T06:26:04;2.30;99.90
25332;DHT22;13284;52.748;13.452;2022-11-24T06:28:30;2.30;99.90
25332;DHT22;13284;52.748;13.452;2022-11-24T06:30:59;2.30;99.90
25332;DHT22;13284;52.748;13.452;2022-11-24T06:33:25;2.30;99.90
25332;DHT22;13284;52.748;13.452;2022-11-24T06:35:50;2.30;99.90
25332;DHT22;13284;52.748;13.452;2022-11-24T06:38:16;2.20;99.90
25332;DHT22;13284;52.748;13.452;2022-11-24T06:40:42;2.10;99.90
25332;DHT22;13284;52.748;13.452;2022-11-24T06:43:07;2.10;99.90
25332;DHT22;13284;52.748;13.452;2022-11-24T06:45:33;2.10;99.90
25332;DHT22;13284;52.748;13.452;2022-11-24T06:47:58;2.20;99.90
25332;DHT22;13284;52.748;13.452;2022-11-24T06:50:24;2.20;99.90
25332;DHT22;13284;52.748;13.452;2022-11-24T06:52:49;2.20;99.90
25332;DHT22;13284;52.748;13.452;2022-11-24T06:55:15;2.20;99.90
25332;DHT22;13284;52.748;13.452;2022-11-24T06:57:40;2.30;99.90
25332;DHT22;13284;52.748;13.452;2022-11-24T07:00:06;2.20;99.90
25332;DHT22;13284;52.748;13.452;2022-11-24T07:02:32;2.20;99.90
25332;DHT22;13284;52.748;13.452;2022-11-24T07:04:58;2.20;99.90
25332;DHT22;13284;52.748;13.452;2022-11-24T07:07:24;2.20;99.90
25332;DHT22;13284;52.748;13.452;2022-11-24T07:09:49;2.10;99.90
25332;DHT22;13284;52.748;13.452;2022-11-24T07:12:15;2.10;99.90
25332;DHT22;13284;52.748;13.452;2022-11-24T07:14:40;2.20;99.90
25332;DHT22;13284;52.748;13.452;2022-11-24T07:17:06;2.10;99.90
25332;DHT22;13284;52.748;13.452;2022-11-24T07:19:32;2.20;99.90
25332;DHT22;13284;52.748;13.452;2022-11-24T07:21:58;2.20;99.90
25332;DHT22;13284;52.748;13.452;2022-11-24T07:24:23;2.20;99.90
25332;DHT22;13284;52.748;13.452;2022-11-24T07:26:49;2.30;99.90
25332;DHT22;13284;52.748;13.452;2022-11-24T07:29:14;2.20;99.90
25332;DHT22;13284;52.748;13.452;2022-11-24T07:31:40;2.20;99.90
25332;DHT22;13284;52.748;13.452;2022-11-24T07:34:06;2.30;99.90
25332;DHT22;13284;52.748;13.452;2022-11-24T07:36:32;2.30;99.90
25332;DHT22;13284;52.748;13.452;2022-11-24T07:38:57;2.30;99.90
25332;DHT22;13284;52.748;13.452;2022-11-24T07:41:23;2.40;99.90
25332;DHT22;13284;52.748;13.452;2022-11-24T07:43:49;2.40;99.90
25332;DHT22;13284;52.748;13.452;2022-11-24T07:46:16;2.40;99.90
25332;DHT22;13284;52.748;13.452;2022-11-24T07:48:43;2.40;99.90
25332;DHT22;13284;52.748;13.452;2022-11-24T07:51:08;2.50;99.90
25332;DHT22;13284;52.748;13.452;2022-11-24T07:53:35;2.50;99.90
25332;DHT22;13284;52.748;13.452;2022-11-24T07:56:02;2.50;99.90
25332;DHT22;13284;52.748;13.452;2022-11-24T07:58:30;2.50;99.90
25332;DHT22;13284;52.748;13.452;2022-11-24T08:00:56;2.60;99.90
25332;DHT22;13284;52.748;13.452;2022-11-24T08:03:21;2.60;99.90
25332;DHT22;13284;52.748;13.452;2022-11-24T08:05:58;2.60;99.90
25332;DHT22;13284;52.748;13.452;2022-11-24T08:08:24;2.60;99.90
25332;DHT22;13284;52.748;13.452;2022-11-24T08:10:50;2.60;99.90
25332;DHT22;13284;52.748;13.452;2022-11-24T08:13:16;2.60;99.90
25332;DHT22;13284;52.748;13.452;2022-11-24T08:15:42;2.70;99.90
25332;DHT22;13284;52.748;13.452;2022-11-24T08:18:07;2.70;99.90
25332;DHT22;13284;52.748;13.452;2022-11-24T08:20:33;2.70;99.90
25332;DHT22;13284;52.748;13.452;2022-11-24T08:22:58;2.80;99.90
25332;DHT22;13284;52.748;13.452;2022-11-24T08:25:25;2.80;99.90
25332;DHT22;13284;52.748;13.452;2022-11-24T08:28:00;2.80;99.90
25332;DHT22;13284;52.748;13.452;2022-11-24T08:30:26;2.90;99.90
25332;DHT22;13284;52.748;13.452;2022-11-24T08:32:52;2.80;99.90
25332;DHT22;13284;52.748;13.452;2022-11-24T08:35:17;2.90;99.90
25332;DHT22;13284;52.748;13.452;2022-11-24T08:37:43;2.90;99.90
25332;DHT22;13284;52.748;13.452;2022-11-24T08:40:09;2.70;99.90
25332;DHT22;13284;52.748;13.452;2022-11-24T08:42:35;2.80;99.90
25332;DHT22;13284;52.748;13.452;2022-11-24T08:45:00;2.70;99.90
25332;DHT22;13284;52.748;13.452;2022-11-24T08:47:26;2.80;99.90
25332;DHT22;13284;52.748;13.452;2022-11-24T08:49:51;2.80;99.90
25332;DHT22;13284;52.748;13.452;2022-11-24T08:52:17;2.90;99.90
25332;DHT22;13284;52.748;13.452;2022-11-24T08:54:42;3.00;99.90
25332;DHT22;13284;52.748;13.452;2022-11-24T08:57:10;3.00;99.90
25332;DHT22;13284;52.748;13.452;2022-11-24T08:59:35;3.00;99.90
25332;DHT22;13284;52.748;13.452;2022-11-24T09:02:01;3.00;99.90
25332;DHT22;13284;52.748;13.452;2022-11-24T09:04:27;3.00;99.90
25332;DHT22;13284;52.748;13.452;2022-11-24T09:06:52;3.10;99.90
25332;DHT22;13284;52.748;13.452;2022-11-24T09:09:18;3.20;99.90
25332;DHT22;13284;52.748;13.452;2022-11-24T09:11:43;3.30;99.90
25332;DHT22;13284;52.748;13.452;2022-11-24T09:14:09;3.20;99.90
25332;DHT22;13284;52.748;13.452;2022-11-24T09:16:35;3.20;99.90
25332;DHT22;13284;52.748;13.452;2022-11-24T09:19:03;3.40;99.90
25332;DHT22;13284;52.748;13.452;2022-11-24T09:21:29;3.40;99.90
25332;DHT22;13284;52.748;13.452;2022-11-24T09:23:55;3.30;99.90
25332;DHT22;13284;52.748;13.452;2022-11-24T09:26:29;3.40;99.90
25332;DHT22;13284;52.748;13.452;2022-11-24T09:28:56;3.40;99.90
25332;DHT22;13284;52.748;13.452;2022-11-24T09:31:28;3.40;99.90
25332;DHT22;13284;52.748;13.452;2022-11-24T09:33:54;3.50;99.90
25332;DHT22;13284;52.748;13.452;2022-11-24T09:36:21;3.50;99.90
25332;DHT22;13284;52.748;13.452;2022-11-24T09:38:47;3.40;99.90
25332;DHT22;13284;52.748;13.452;2022-11-24T09:41:34;3.60;99.90
25332;DHT22;13284;52.748;13.452;2022-11-24T09:47:36;3.70;99.90
25332;DHT22;13284;52.748;13.452;2022-11-24T09:53:04;3.60;99.90
25332;DHT22;13284;52.748;13.452;2022-11-24T09:55:48;3.60;99.90
25332;DHT22;13284;52.748;13.452;2022-11-24T10:01:16;3.90;99.90
25332;DHT22;13284;52.748;13.452;2022-11-24T10:03:51;3.90;99.90
25332;DHT22;13284;52.748;13.452;2022-11-24T10:15:22;4.00;99.90
25332;DHT22;13284;52.748;13.452;2022-11-24T10:25:16;4.20;99.90
25332;DHT22;13284;52.748;13.452;2022-11-24T10:28:09;4.20;99.90
25332;DHT22;13284;52.748;13.452;2022-11-24T10:30:35;4.30;99.90
25332;DHT22;13284;52.748;13.452;2022-11-24T10:42:02;4.50;99.90
25332;DHT22;13284;52.748;13.452;2022-11-24T10:44:29;4.60;99.90
25332;DHT22;13284;52.748;13.452;2022-11-24T10:46:55;4.50;99.90
25332;DHT22;13284;52.748;13.452;2022-11-24T10:49:26;4.70;99.90
25332;DHT22;13284;52.748;13.452;2022-11-24T10:52:08;4.70;99.90
25332;DHT22;13284;52.748;13.452;2022-11-24T10:54:56;4.70;99.90
25332;DHT22;13284;52.748;13.452;2022-11-24T10:59:53;4.60;99.90
25332;DHT22;13284;52.748;13.452;2022-11-24T11:02:35;4.80;99.90
25332;DHT22;13284;52.748;13.452;2022-11-24T11:05:24;5.10;99.90
25332;DHT22;13284;52.748;13.452;2022-11-24T11:08:30;5.00;99.90
25332;DHT22;13284;52.748;13.452;2022-11-24T11:14:01;5.20;99.90
25332;DHT22;13284;52.748;13.452;2022-11-24T11:16:39;5.00;99.90
25332;DHT22;13284;52.748;13.452;2022-11-24T11:24:27;5.20;99.90
25332;DHT22;13284;52.748;13.452;2022-11-24T11:26:59;5.20;99.90
25332;DHT22;13284;52.748;13.452;2022-11-24T11:29:27;5.30;99.90
25332;DHT22;13284;52.748;13.452;2022-11-24T11:32:02;5.40;99.90
25332;DHT22;13284;52.748;13.452;2022-11-24T11:34:34;5.50;99.90
25332;DHT22;13284;52.748;13.452;2022-11-24T11:37:02;5.50;99.90
25332;DHT22;13284;52.748;13.452;2022-11-24T11:39:34;5.50;99.90
25332;DHT22;13284;52.748;13.452;2022-11-24T11:44:56;5.50;99.90
25332;DHT22;13284;52.748;13.452;2022-11-24T11:47:43;5.30;99.90
25332;DHT22;13284;52.748;13.452;2022-11-24T11:50:15;5.30;99.90
25332;DHT22;13284;52.748;13.452;2022-11-24T12:01:43;5.40;99.90
25332;DHT22;13284;52.748;13.452;2022-11-24T12:04:40;5.40;99.90
25332;DHT22;13284;52.748;13.452;2022-11-24T12:10:35;5.50;99.90
25332;DHT22;13284;52.748;13.452;2022-11-24T12:21:17;5.50;99.90
25332;DHT22;13284;52.748;13.452;2022-11-24T12:23:59;5.60;99.90
25332;DHT22;13284;52.748;13.452;2022-11-24T12:29:04;5.50;99.90
25332;DHT22;13284;52.748;13.452;2022-11-24T12:31:58;5.70;99.90
25332;DHT22;13284;52.748;13.452;2022-11-24T12:34:48;5.80;99.90
25332;DHT22;13284;52.748;13.452;2022-11-24T12:37:50;5.80;99.90
25332;DHT22;13284;52.748;13.452;2022-11-24T12:40:31;5.80;99.90
25332;DHT22;13284;52.748;13.452;2022-11-24T12:43:12;5.70;99.90
25332;DHT22;13284;52.748;13.452;2022-11-24T12:51:00;5.70;99.90
25332;DHT22;13284;52.748;13.452;2022-11-24T12:53:31;5.60;99.90
25332;DHT22;13284;52.748;13.452;2022-11-24T12:56:09;5.50;99.90
25332;DHT22;13284;52.748;13.452;2022-11-24T12:58:51;5.60;99.90
25332;DHT22;13284;52.748;13.452;2022-11-24T13:04:37;5.60;99.90
25332;DHT22;13284;52.748;13.452;2022-11-24T13:07:15;5.70;99.90
25332;DHT22;13284;52.748;13.452;2022-11-24T13:13:00;5.90;99.90
25332;DHT22;13284;52.748;13.452;2022-11-24T13:15:28;6.00;99.90
25332;DHT22;13284;52.748;13.452;2022-11-24T13:17:53;6.10;99.90
25332;DHT22;13284;52.748;13.452;2022-11-24T13:25:27;6.00;99.90
25332;DHT22;13284;52.748;13.452;2022-11-24T13:27:57;6.00;99.90
25332;DHT22;13284;52.748;13.452;2022-11-24T13:33:26;6.10;99.90
25332;DHT22;13284;52.748;13.452;2022-11-24T13:41:09;6.10;99.90
25332;DHT22;13284;52.748;13.452;2022-11-24T13:43:35;6.20;99.90
25332;DHT22;13284;52.748;13.452;2022-11-24T13:46:02;6.30;99.90
25332;DHT22;13284;52.748;13.452;2022-11-24T13:56:02;6.20;99.90
25332;DHT22;13284;52.748;13.452;2022-11-24T13:58:35;6.10;99.90
25332;DHT22;13284;52.748;13.452;2022-11-24T14:03:35;5.70;99.90
25332;DHT22;13284;52.748;13.452;2022-11-24T14:06:03;5.90;99.90
25332;DHT22;13284;52.748;13.452;2022-11-24T14:08:31;5.90;99.90
25332;DHT22;13284;52.748;13.452;2022-11-24T14:10:59;5.90;99.90
25332;DHT22;13284;52.748;13.452;2022-11-24T14:18:38;5.90;99.90
25332;DHT22;13284;52.748;13.452;2022-11-24T14:23:47;6.00;99.90
25332;DHT22;13284;52.748;13.452;2022-11-24T14:26:21;6.10;99.90
25332;DHT22;13284;52.748;13.452;2022-11-24T14:28:47;5.90;99.90
25332;DHT22;13284;52.748;13.452;2022-11-24T14:31:24;5.60;99.90
25332;DHT22;13284;52.748;13.452;2022-11-24T14:36:33;5.60;99.90
25332;DHT22;13284;52.748;13.452;2022-11-24T14:38:59;5.70;99.90
25332;DHT22;13284;52.748;13.452;2022-11-24T14:41:26;5.60;99.90
25332;DHT22;13284;52.748;13.452;2022-11-24T14:44:21;5.70;99.90
25332;DHT22;13284;52.748;13.452;2022-11-24T14:46:48;5.60;99.90
25332;DHT22;13284;52.748;13.452;2022-11-24T14:49:22;5.50;99.90
25332;DHT22;13284;52.748;13.452;2022-11-24T14:51:55;5.50;99.90
25332;DHT22;13284;52.748;13.452;2022-11-24T14:54:23;5.50;99.90
25332;DHT22;13284;52.748;13.452;2022-11-24T14:57:03;5.40;99.90
25332;DHT22;13284;52.748;13.452;2022-11-24T14:59:33;5.40;99.90
25332;DHT22;13284;52.748;13.452;2022-11-24T15:02:01;5.40;99.90
25332;DHT22;13284;52.748;13.452;2022-11-24T15:04:28;5.60;99.90
25332;DHT22;13284;52.748;13.452;2022-11-24T15:07:15;5.60;99.90
25332;DHT22;13284;52.748;13.452;2022-11-24T15:09:57;5.70;99.90
25332;DHT22;13284;52.748;13.452;2022-11-24T15:17:45;5.70;99.90
25332;DHT22;13284;52.748;13.452;2022-11-24T15:20:34;5.70;99.90
25332;DHT22;13284;52.748;13.452;2022-11-24T15:25:55;5.80;99.90
25332;DHT22;13284;52.748;13.452;2022-11-24T15:28:22;5.80;99.90
25332;DHT22;13284;52.748;13.452;2022-11-24T15:31:10;5.70;99.90
25332;DHT22;13284;52.748;13.452;2022-11-24T15:33:37;5.80;99.90
25332;DHT22;13284;52.748;13.452;2022-11-24T15:36:03;5.70;99.90
25332;DHT22;13284;52.748;13.452;2022-11-24T15:38:29;5.70;99.90
25332;DHT22;13284;52.748;13.452;2022-11-24T15:40:57;5.70;99.90
25332;DHT22;13284;52.748;13.452;2022-11-24T15:43:38;5.60;99.90
25332;DHT22;13284;52.748;13.452;2022-11-24T15:46:04;5.50;99.90
25332;DHT22;13284;52.748;13.452;2022-11-24T15:48:30;5.60;99.90
25332;DHT22;13284;52.748;13.452;2022-11-24T15:50:58;5.60;99.90
25332;DHT22;13284;52.748;13.452;2022-11-24T15:53:27;5.60;99.90
25332;DHT22;13284;52.748;13.452;2022-11-24T15:55:55;5.70;99.90
25332;DHT22;13284;52.748;13.452;2022-11-24T15:58:21;5.60;99.90
25332;DHT22;13284;52.748;13.452;2022-11-24T16:00:47;5.60;99.90
25332;DHT22;13284;52.748;13.452;2022-11-24T16:03:12;5.50;99.90
25332;DHT22;13284;52.748;13.452;2022-11-24T16:05:38;5.60;99.90
25332;DHT22;13284;52.748;13.452;2022-11-24T16:08:05;5.60;99.90
25332;DHT22;13284;52.748;13.452;2022-11-24T16:10:36;5.70;99.90
25332;DHT22;13284;52.748;13.452;2022-11-24T16:13:01;5.70;99.90
25332;DHT22;13284;52.748;13.452;2022-11-24T16:15:27;5.70;99.90
25332;DHT22;13284;52.748;13.452;2022-11-24T16:17:53;5.70;99.90
25332;DHT22;13284;52.748;13.452;2022-11-24T16:20:18;5.70;99.90
25332;DHT22;13284;52.748;13.452;2022-11-24T16:22:44;5.60;99.90
25332;DHT22;13284;52.748;13.452;2022-11-24T16:25:10;5.70;99.90
25332;DHT22;13284;52.748;13.452;2022-11-24T16:27:36;5.60;99.90
25332;DHT22;13284;52.748;13.452;2022-11-24T16:30:03;5.40;99.90
25332;DHT22;13284;52.748;13.452;2022-11-24T16:32:28;5.40;99.90
25332;DHT22;13284;52.748;13.452;2022-11-24T16:34:54;5.30;99.90
25332;DHT22;13284;52.748;13.452;2022-11-24T16:37:19;5.10;99.90
25332;DHT22;13284;52.748;13.452;2022-11-24T16:39:48;5.10;99.90
25332;DHT22;13284;52.748;13.452;2022-11-24T16:42:14;5.10;99.90
25332;DHT22;13284;52.748;13.452;2022-11-24T16:44:40;5.00;99.90
25332;DHT22;13284;52.748;13.452;2022-11-24T16:47:06;4.90;99.90
25332;DHT22;13284;52.748;13.452;2022-11-24T16:49:32;4.70;99.90
25332;DHT22;13284;52.748;13.452;2022-11-24T16:51:57;4.60;99.90
25332;DHT22;13284;52.748;13.452;2022-11-24T16:54:23;4.60;99.90
25332;DHT22;13284;52.748;13.452;2022-11-24T16:56:50;4.60;99.90
25332;DHT22;13284;52.748;13.452;2022-11-24T16:59:15;4.60;99.90
25332;DHT22;13284;52.748;13.452;2022-11-24T17:01:41;4.50;99.90
25332;DHT22;13284;52.748;13.452;2022-11-24T17:04:07;4.60;99.90
25332;DHT22;13284;52.748;13.452;2022-11-24T17:06:33;4.70;99.90
25332;DHT22;13284;52.748;13.452;2022-11-24T17:08:59;4.70;99.90
25332;DHT22;13284;52.748;13.452;2022-11-24T17:11:27;4.70;99.90
25332;DHT22;13284;52.748;13.452;2022-11-24T17:13:54;4.60;99.90
25332;DHT22;13284;52.748;13.452;2022-11-24T17:16:21;4.70;99.90
25332;DHT22;13284;52.748;13.452;2022-11-24T17:18:47;4.60;99.90
25332;DHT22;13284;52.748;13.452;2022-11-24T17:21:15;4.60;99.90
25332;DHT22;13284;52.748;13.452;2022-11-24T17:23:41;4.60;99.90
25332;DHT22;13284;52.748;13.452;2022-11-24T17:26:10;4.50;99.90
25332;DHT22;13284;52.748;13.452;2022-11-24T17:28:36;4.50;99.90
25332;DHT22;13284;52.748;13.452;2022-11-24T17:31:22;4.40;99.90
25332;DHT22;13284;52.748;13.452;2022-11-24T17:33:49;4.50;99.90
25332;DHT22;13284;52.748;13.452;2022-11-24T17:36:15;4.50;99.90
25332;DHT22;13284;52.748;13.452;2022-11-24T17:38:40;4.50;99.90
25332;DHT22;13284;52.748;13.452;2022-11-24T17:41:06;4.60;99.90
25332;DHT22;13284;52.748;13.452;2022-11-24T17:43:32;4.70;99.90
25332;DHT22;13284;52.748;13.452;2022-11-24T17:46:01;4.70;99.90
25332;DHT22;13284;52.748;13.452;2022-11-24T17:48:28;4.70;99.90